sensor_id;sensor_type;location;lat;lon;timestamp;P1;durP1;ratioP1;P2;durP2;ratioP2
15667;SDS011;7934;48.710;9.024;2022-08-01T00:01:50;2.07;;;2.00;;
15667;SDS011;7934;48.710;9.024;2022-08-01T00:04:17;2.20;;;2.10;;
15667;SDS011;7934;48.710;9.024;2022-08-01T00:06:44;5.23;;;2.33;;
15667;SDS011;7934;48.710;9.024;2022-08-01T00:09:13;4.53;;;2.23;;
15667;SDS011;7934;48.710;9.024;2022-08-01T00:11:40;3.37;;;2.17;;
15667;SDS011;7934;48.710;9.024;2022-08-01T00:14:07;2.50;;;2.17;;
15667;SDS011;7934;48.710;9.024;2022-08-01T00:16:35;2.50;;;2.40;;
15667;SDS011;7934;48.710;9.024;2022-08-01T00:19:02;2.30;;;2.00;;
15667;SDS011;7934;48.710;9.024;2022-08-01T00:21:30;2.77;;;2.50;;
15667;SDS011;7934;48.710;9.024;2022-08-01T00:23:57;2.43;;;2.33;;
15667;SDS011;7934;48.710;9.024;2022-08-01T00:26:25;6.63;;;2.40;;
15667;SDS011;7934;48.710;9.024;2022-08-01T00:28:52;2.53;;;2.33;;
15667;SDS011;7934;48.710;9.024;2022-08-01T00:31:20;2.40;;;2.30;;
15667;SDS011;7934;48.710;9.024;2022-08-01T00:33:47;2.50;;;2.40;;
15667;SDS011;7934;48.710;9.024;2022-08-01T00:36:14;2.73;;;2.63;;
15667;SDS011;7934;48.710;9.024;2022-08-01T00:38:41;2.60;;;2.43;;
15667;SDS011;7934;48.710;9.024;2022-08-01T00:41:08;2.10;;;2.00;;
15667;SDS011;7934;48.710;9.024;2022-08-01T00:43:37;2.37;;;2.20;;
15667;SDS011;7934;48.710;9.024;2022-08-01T00:46:04;3.33;;;2.00;;
15667;SDS011;7934;48.710;9.024;2022-08-01T00:48:31;2.60;;;2.40;;
15667;SDS011;7934;48.710;9.024;2022-08-01T00:50:58;3.07;;;2.80;;
15667;SDS011;7934;48.710;9.024;2022-08-01T00:53:25;2.37;;;2.27;;
15667;SDS011;7934;48.710;9.024;2022-08-01T00:55:53;2.07;;;2.07;;
15667;SDS011;7934;48.710;9.024;2022-08-01T00:58:20;2.67;;;2.47;;
15667;SDS011;7934;48.710;9.024;2022-08-01T01:00:48;4.70;;;2.43;;
15667;SDS011;7934;48.710;9.024;2022-08-01T01:03:15;2.60;;;2.47;;
15667;SDS011;7934;48.710;9.024;2022-08-01T01:05:45;3.87;;;2.20;;
15667;SDS011;7934;48.710;9.024;2022-08-01T01:08:16;2.70;;;2.50;;
15667;SDS011;7934;48.710;9.024;2022-08-01T01:10:46;3.30;;;2.60;;
15667;SDS011;7934;48.710;9.024;2022-08-01T01:13:16;2.40;;;2.30;;
15667;SDS011;7934;48.710;9.024;2022-08-01T01:15:46;2.47;;;2.37;;
15667;SDS011;7934;48.710;9.024;2022-08-01T01:18:17;2.50;;;2.30;;
15667;SDS011;7934;48.710;9.024;2022-08-01T01:20:44;2.57;;;2.43;;
15667;SDS011;7934;48.710;9.024;2022-08-01T01:23:19;2.50;;;2.40;;
15667;SDS011;7934;48.710;9.024;2022-08-01T01:25:51;2.80;;;2.47;;
15667;SDS011;7934;48.710;9.024;2022-08-01T01:28:27;4.83;;;2.83;;
15667;SDS011;7934;48.710;9.024;2022-08-01T01:30:58;2.90;;;2.70;;
15667;SDS011;7934;48.710;9.024;2022-08-01T01:33:26;4.53;;;2.73;;
15667;SDS011;7934;48.710;9.024;2022-08-01T01:35:57;2.90;;;2.70;;
15667;SDS011;7934;48.710;9.024;2022-08-01T01:38:26;2.57;;;2.37;;
15667;SDS011;7934;48.710;9.024;2022-08-01T01:40:54;2.73;;;2.53;;
15667;SDS011;7934;48.710;9.024;2022-08-01T01:43:22;3.50;;;2.70;;
15667;SDS011;7934;48.710;9.024;2022-08-01T01:45:50;2.77;;;2.67;;
15667;SDS011;7934;48.710;9.024;2022-08-01T01:48:20;2.90;;;2.80;;
15667;SDS011;7934;48.710;9.024;2022-08-01T01:50:48;2.93;;;2.73;;
15667;SDS011;7934;48.710;9.024;2022-08-01T01:53:17;3.10;;;2.70;;
15667;SDS011;7934;48.710;9.024;2022-08-01T01:55:46;3.40;;;3.10;;
15667;SDS011;7934;48.710;9.024;2022-08-01T01:58:13;3.27;;;3.07;;
15667;SDS011;7934;48.710;9.024;2022-08-01T02:00:42;3.10;;;2.90;;
15667;SDS011;7934;48.710;9.024;2022-08-01T02:03:10;3.10;;;2.90;;
15667;SDS011;7934;48.710;9.024;2022-08-01T02:05:39;2.90;;;2.70;;
15667;SDS011;7934;48.710;9.024;2022-08-01T02:08:07;3.63;;;2.83;;
15667;SDS011;7934;48.710;9.024;2022-08-01T02:10:37;3.23;;;2.87;;
15667;SDS011;7934;48.710;9.024;2022-08-01T02:13:06;3.10;;;3.00;;
15667;SDS011;7934;48.710;9.024;2022-08-01T02:15:34;4.03;;;3.73;;
15667;SDS011;7934;48.710;9.024;2022-08-01T02:18:03;2.70;;;2.60;;
15667;SDS011;7934;48.710;9.024;2022-08-01T02:20:32;2.60;;;2.50;;
15667;SDS011;7934;48.710;9.024;2022-08-01T02:23:04;3.17;;;2.97;;
15667;SDS011;7934;48.710;9.024;2022-08-01T02:25:33;3.37;;;2.90;;
15667;SDS011;7934;48.710;9.024;2022-08-01T02:28:04;4.87;;;2.70;;
15667;SDS011;7934;48.710;9.024;2022-08-01T02:30:33;2.90;;;2.70;;
15667;SDS011;7934;48.710;9.024;2022-08-01T02:33:02;4.57;;;3.03;;
15667;SDS011;7934;48.710;9.024;2022-08-01T02:35:30;2.83;;;2.60;;
15667;SDS011;7934;48.710;9.024;2022-08-01T02:37:58;3.03;;;2.93;;
15667;SDS011;7934;48.710;9.024;2022-08-01T02:40:28;3.83;;;2.93;;
15667;SDS011;7934;48.710;9.024;2022-08-01T02:42:56;3.77;;;3.47;;
15667;SDS011;7934;48.710;9.024;2022-08-01T02:45:25;3.53;;;3.23;;
15667;SDS011;7934;48.710;9.024;2022-08-01T02:47:54;3.10;;;3.00;;
15667;SDS011;7934;48.710;9.024;2022-08-01T02:50:22;3.90;;;3.20;;
15667;SDS011;7934;48.710;9.024;2022-08-01T02:52:50;2.90;;;2.80;;
15667;SDS011;7934;48.710;9.024;2022-08-01T02:55:19;5.87;;;3.60;;
15667;SDS011;7934;48.710;9.024;2022-08-01T02:57:48;3.50;;;3.20;;
15667;SDS011;7934;48.710;9.024;2022-08-01T03:00:16;3.10;;;3.00;;
15667;SDS011;7934;48.710;9.024;2022-08-01T03:02:44;3.67;;;3.37;;
15667;SDS011;7934;48.710;9.024;2022-08-01T03:05:13;4.57;;;3.23;;
15667;SDS011;7934;48.710;9.024;2022-08-01T03:07:41;3.20;;;3.00;;
15667;SDS011;7934;48.710;9.024;2022-08-01T03:10:08;3.33;;;3.13;;
15667;SDS011;7934;48.710;9.024;2022-08-01T03:12:36;4.03;;;3.47;;
15667;SDS011;7934;48.710;9.024;2022-08-01T03:15:06;4.50;;;3.43;;
15667;SDS011;7934;48.710;9.024;2022-08-01T03:17:33;3.67;;;3.37;;
15667;SDS011;7934;48.710;9.024;2022-08-01T03:20:03;5.13;;;3.63;;
15667;SDS011;7934;48.710;9.024;2022-08-01T03:22:30;3.07;;;2.87;;
15667;SDS011;7934;48.710;9.024;2022-08-01T03:24:59;4.60;;;3.57;;
15667;SDS011;7934;48.710;9.024;2022-08-01T03:27:27;6.43;;;5.07;;
15667;SDS011;7934;48.710;9.024;2022-08-01T03:29:56;3.27;;;3.17;;
15667;SDS011;7934;48.710;9.024;2022-08-01T03:32:26;3.40;;;3.20;;
15667;SDS011;7934;48.710;9.024;2022-08-01T03:34:54;3.57;;;3.07;;
15667;SDS011;7934;48.710;9.024;2022-08-01T03:37:21;4.20;;;3.60;;
15667;SDS011;7934;48.710;9.024;2022-08-01T03:39:52;3.40;;;3.20;;
15667;SDS011;7934;48.710;9.024;2022-08-01T03:42:29;7.33;;;4.10;;
15667;SDS011;7934;48.710;9.024;2022-08-01T03:44:59;5.97;;;4.10;;
15667;SDS011;7934;48.710;9.024;2022-08-01T03:47:31;4.97;;;3.67;;
15667;SDS011;7934;48.710;9.024;2022-08-01T03:49:58;3.53;;;3.27;;
15667;SDS011;7934;48.710;9.024;2022-08-01T03:52:27;3.60;;;3.50;;
15667;SDS011;7934;48.710;9.024;2022-08-01T03:54:56;3.60;;;3.40;;
15667;SDS011;7934;48.710;9.024;2022-08-01T03:57:24;5.93;;;4.00;;
15667;SDS011;7934;48.710;9.024;2022-08-01T03:59:54;4.07;;;3.77;;
15667;SDS011;7934;48.710;9.024;2022-08-01T04:02:22;4.40;;;4.00;;
15667;SDS011;7934;48.710;9.024;2022-08-01T04:04:51;4.10;;;3.63;;
15667;SDS011;7934;48.710;9.024;2022-08-01T04:07:22;4.20;;;3.87;;
15667;SDS011;7934;48.710;9.024;2022-08-01T04:09:49;5.50;;;3.67;;
15667;SDS011;7934;48.710;9.024;2022-08-01T04:12:16;4.33;;;3.77;;
15667;SDS011;7934;48.710;9.024;2022-08-01T04:14:43;3.23;;;3.13;;
15667;SDS011;7934;48.710;9.024;2022-08-01T04:17:11;4.53;;;4.13;;
15667;SDS011;7934;48.710;9.024;2022-08-01T04:19:38;3.83;;;3.50;;
15667;SDS011;7934;48.710;9.024;2022-08-01T04:22:06;4.13;;;3.83;;
15667;SDS011;7934;48.710;9.024;2022-08-01T04:24:35;3.87;;;3.27;;
15667;SDS011;7934;48.710;9.024;2022-08-01T04:27:06;5.37;;;3.40;;
15667;SDS011;7934;48.710;9.024;2022-08-01T04:29:35;4.00;;;3.80;;
15667;SDS011;7934;48.710;9.024;2022-08-01T04:32:03;4.80;;;3.97;;
15667;SDS011;7934;48.710;9.024;2022-08-01T04:34:31;4.13;;;3.73;;
15667;SDS011;7934;48.710;9.024;2022-08-01T04:36:58;5.90;;;3.97;;
15667;SDS011;7934;48.710;9.024;2022-08-01T04:39:28;3.77;;;3.47;;
15667;SDS011;7934;48.710;9.024;2022-08-01T04:41:58;5.73;;;3.77;;
15667;SDS011;7934;48.710;9.024;2022-08-01T04:44:28;4.33;;;3.77;;
15667;SDS011;7934;48.710;9.024;2022-08-01T04:46:57;3.80;;;3.50;;
15667;SDS011;7934;48.710;9.024;2022-08-01T04:49:26;5.07;;;3.67;;
15667;SDS011;7934;48.710;9.024;2022-08-01T04:51:54;6.33;;;3.63;;
15667;SDS011;7934;48.710;9.024;2022-08-01T04:54:23;3.43;;;3.23;;
15667;SDS011;7934;48.710;9.024;2022-08-01T04:56:51;3.90;;;3.67;;
15667;SDS011;7934;48.710;9.024;2022-08-01T04:59:20;3.43;;;3.23;;
15667;SDS011;7934;48.710;9.024;2022-08-01T05:02:06;3.90;;;3.63;;
15667;SDS011;7934;48.710;9.024;2022-08-01T05:04:33;3.43;;;3.13;;
15667;SDS011;7934;48.710;9.024;2022-08-01T05:07:01;4.27;;;3.60;;
15667;SDS011;7934;48.710;9.024;2022-08-01T05:09:29;4.17;;;3.23;;
15667;SDS011;7934;48.710;9.024;2022-08-01T05:11:58;8.73;;;3.47;;
15667;SDS011;7934;48.710;9.024;2022-08-01T05:14:26;3.27;;;3.00;;
15667;SDS011;7934;48.710;9.024;2022-08-01T05:16:56;3.00;;;2.90;;
15667;SDS011;7934;48.710;9.024;2022-08-01T05:19:23;3.37;;;3.07;;
15667;SDS011;7934;48.710;9.024;2022-08-01T05:21:51;3.40;;;3.20;;
15667;SDS011;7934;48.710;9.024;2022-08-01T05:24:18;3.40;;;2.90;;
15667;SDS011;7934;48.710;9.024;2022-08-01T05:26:45;3.43;;;3.17;;
15667;SDS011;7934;48.710;9.024;2022-08-01T05:29:15;3.33;;;2.80;;
15667;SDS011;7934;48.710;9.024;2022-08-01T05:31:42;3.37;;;3.17;;
15667;SDS011;7934;48.710;9.024;2022-08-01T05:34:09;5.37;;;3.63;;
15667;SDS011;7934;48.710;9.024;2022-08-01T05:36:36;3.03;;;2.93;;
15667;SDS011;7934;48.710;9.024;2022-08-01T05:39:04;4.40;;;3.30;;
15667;SDS011;7934;48.710;9.024;2022-08-01T05:41:31;3.17;;;2.67;;
15667;SDS011;7934;48.710;9.024;2022-08-01T05:43:58;5.10;;;3.27;;
15667;SDS011;7934;48.710;9.024;2022-08-01T05:46:27;4.07;;;2.77;;
15667;SDS011;7934;48.710;9.024;2022-08-01T05:48:55;4.33;;;2.50;;
15667;SDS011;7934;48.710;9.024;2022-08-01T05:51:23;5.30;;;2.40;;
15667;SDS011;7934;48.710;9.024;2022-08-01T05:53:50;3.10;;;2.80;;
15667;SDS011;7934;48.710;9.024;2022-08-01T05:56:17;2.73;;;2.63;;
15667;SDS011;7934;48.710;9.024;2022-08-01T05:58:45;6.77;;;2.80;;
15667;SDS011;7934;48.710;9.024;2022-08-01T06:01:12;5.70;;;2.33;;
15667;SDS011;7934;48.710;9.024;2022-08-01T06:03:40;2.77;;;2.57;;
15667;SDS011;7934;48.710;9.024;2022-08-01T06:06:07;4.53;;;2.90;;
15667;SDS011;7934;48.710;9.024;2022-08-01T06:08:34;3.17;;;2.50;;
15667;SDS011;7934;48.710;9.024;2022-08-01T06:11:02;3.77;;;2.70;;
15667;SDS011;7934;48.710;9.024;2022-08-01T06:13:29;2.63;;;2.47;;
15667;SDS011;7934;48.710;9.024;2022-08-01T06:15:56;2.50;;;2.40;;
15667;SDS011;7934;48.710;9.024;2022-08-01T06:18:23;2.50;;;2.30;;
15667;SDS011;7934;48.710;9.024;2022-08-01T06:20:52;2.80;;;2.20;;
15667;SDS011;7934;48.710;9.024;2022-08-01T06:23:19;2.73;;;2.30;;
15667;SDS011;7934;48.710;9.024;2022-08-01T06:25:47;1.87;;;1.77;;
15667;SDS011;7934;48.710;9.024;2022-08-01T06:28:14;2.07;;;1.87;;
15667;SDS011;7934;48.710;9.024;2022-08-01T06:30:41;2.40;;;2.20;;
15667;SDS011;7934;48.710;9.024;2022-08-01T06:33:08;2.87;;;1.67;;
15667;SDS011;7934;48.710;9.024;2022-08-01T06:35:35;3.17;;;1.77;;
15667;SDS011;7934;48.710;9.024;2022-08-01T06:38:04;7.63;;;2.13;;
15667;SDS011;7934;48.710;9.024;2022-08-01T06:40:31;2.43;;;1.73;;
15667;SDS011;7934;48.710;9.024;2022-08-01T06:42:58;1.90;;;1.60;;
15667;SDS011;7934;48.710;9.024;2022-08-01T06:45:25;2.60;;;1.80;;
15667;SDS011;7934;48.710;9.024;2022-08-01T06:47:53;1.50;;;1.50;;
15667;SDS011;7934;48.710;9.024;2022-08-01T06:50:20;1.87;;;1.80;;
15667;SDS011;7934;48.710;9.024;2022-08-01T06:52:47;1.83;;;1.60;;
15667;SDS011;7934;48.710;9.024;2022-08-01T06:55:15;3.07;;;1.90;;
15667;SDS011;7934;48.710;9.024;2022-08-01T06:57:46;1.30;;;1.30;;
15667;SDS011;7934;48.710;9.024;2022-08-01T07:00:13;1.70;;;1.50;;
15667;SDS011;7934;48.710;9.024;2022-08-01T07:02:43;1.53;;;1.50;;
15667;SDS011;7934;48.710;9.024;2022-08-01T07:05:10;4.13;;;1.90;;
15667;SDS011;7934;48.710;9.024;2022-08-01T07:07:38;2.20;;;1.60;;
15667;SDS011;7934;48.710;9.024;2022-08-01T07:10:05;2.40;;;1.60;;
15667;SDS011;7934;48.710;9.024;2022-08-01T07:12:34;1.37;;;1.37;;
15667;SDS011;7934;48.710;9.024;2022-08-01T07:15:04;3.27;;;1.57;;
15667;SDS011;7934;48.710;9.024;2022-08-01T07:17:31;1.37;;;1.27;;
15667;SDS011;7934;48.710;9.024;2022-08-01T07:19:58;1.70;;;1.60;;
15667;SDS011;7934;48.710;9.024;2022-08-01T07:22:25;1.60;;;1.40;;
15667;SDS011;7934;48.710;9.024;2022-08-01T07:24:53;1.30;;;1.30;;
15667;SDS011;7934;48.710;9.024;2022-08-01T07:27:20;1.30;;;1.20;;
15667;SDS011;7934;48.710;9.024;2022-08-01T07:29:48;2.72;;;1.52;;
15667;SDS011;7934;48.710;9.024;2022-08-01T07:32:15;1.00;;;1.00;;
15667;SDS011;7934;48.710;9.024;2022-08-01T07:34:43;1.42;;;1.40;;
15667;SDS011;7934;48.710;9.024;2022-08-01T07:37:10;2.38;;;1.42;;
15667;SDS011;7934;48.710;9.024;2022-08-01T07:39:37;2.72;;;1.30;;
15667;SDS011;7934;48.710;9.024;2022-08-01T07:42:04;1.40;;;1.30;;
15667;SDS011;7934;48.710;9.024;2022-08-01T07:44:31;2.33;;;1.60;;
15667;SDS011;7934;48.710;9.024;2022-08-01T07:47:00;5.43;;;1.77;;
15667;SDS011;7934;48.710;9.024;2022-08-01T07:49:27;1.90;;;1.43;;
15667;SDS011;7934;48.710;9.024;2022-08-01T07:51:54;1.70;;;1.60;;
15667;SDS011;7934;48.710;9.024;2022-08-01T07:54:21;1.70;;;1.70;;
15667;SDS011;7934;48.710;9.024;2022-08-01T07:56:52;3.80;;;1.50;;
15667;SDS011;7934;48.710;9.024;2022-08-01T07:59:19;1.67;;;1.40;;
15667;SDS011;7934;48.710;9.024;2022-08-01T08:01:48;3.10;;;1.70;;
15667;SDS011;7934;48.710;9.024;2022-08-01T08:04:16;1.80;;;1.80;;
15667;SDS011;7934;48.710;9.024;2022-08-01T08:06:44;1.80;;;1.70;;
15667;SDS011;7934;48.710;9.024;2022-08-01T08:09:12;2.17;;;2.00;;
15667;SDS011;7934;48.710;9.024;2022-08-01T08:11:41;2.75;;;2.08;;
15667;SDS011;7934;48.710;9.024;2022-08-01T08:14:08;1.50;;;1.50;;
15667;SDS011;7934;48.710;9.024;2022-08-01T08:16:35;1.90;;;1.80;;
15667;SDS011;7934;48.710;9.024;2022-08-01T08:19:02;2.33;;;2.23;;
15667;SDS011;7934;48.710;9.024;2022-08-01T08:21:31;1.90;;;1.80;;
15667;SDS011;7934;48.710;9.024;2022-08-01T08:23:58;2.30;;;2.20;;
15667;SDS011;7934;48.710;9.024;2022-08-01T08:26:43;2.13;;;1.97;;
15667;SDS011;7934;48.710;9.024;2022-08-01T08:29:10;2.50;;;2.30;;
15667;SDS011;7934;48.710;9.024;2022-08-01T08:31:37;1.90;;;1.90;;
15667;SDS011;7934;48.710;9.024;2022-08-01T08:34:04;2.10;;;2.00;;
15667;SDS011;7934;48.710;9.024;2022-08-01T08:36:33;2.57;;;2.27;;
15667;SDS011;7934;48.710;9.024;2022-08-01T08:39:00;2.67;;;2.40;;
15667;SDS011;7934;48.710;9.024;2022-08-01T08:41:28;2.53;;;2.43;;
15667;SDS011;7934;48.710;9.024;2022-08-01T08:43:56;3.10;;;2.50;;
15667;SDS011;7934;48.710;9.024;2022-08-01T08:46:24;2.77;;;1.90;;
15667;SDS011;7934;48.710;9.024;2022-08-01T08:48:52;2.53;;;2.20;;
15667;SDS011;7934;48.710;9.024;2022-08-01T08:51:19;2.20;;;2.10;;
15667;SDS011;7934;48.710;9.024;2022-08-01T08:53:49;2.37;;;2.27;;
15667;SDS011;7934;48.710;9.024;2022-08-01T08:56:18;2.67;;;2.47;;
15667;SDS011;7934;48.710;9.024;2022-08-01T08:58:45;3.20;;;2.93;;
15667;SDS011;7934;48.710;9.024;2022-08-01T09:01:12;2.93;;;2.73;;
15667;SDS011;7934;48.710;9.024;2022-08-01T09:03:40;3.43;;;3.23;;
15667;SDS011;7934;48.710;9.024;2022-08-01T09:06:07;3.27;;;3.00;;
15667;SDS011;7934;48.710;9.024;2022-08-01T09:08:34;2.77;;;2.67;;
15667;SDS011;7934;48.710;9.024;2022-08-01T09:11:03;2.77;;;2.53;;
15667;SDS011;7934;48.710;9.024;2022-08-01T09:13:30;2.93;;;2.80;;
15667;SDS011;7934;48.710;9.024;2022-08-01T09:15:57;3.17;;;3.07;;
15667;SDS011;7934;48.710;9.024;2022-08-01T09:18:29;3.10;;;2.90;;
15667;SDS011;7934;48.710;9.024;2022-08-01T09:21:10;6.10;;;3.00;;
15667;SDS011;7934;48.710;9.024;2022-08-01T09:23:39;3.00;;;2.80;;
15667;SDS011;7934;48.710;9.024;2022-08-01T09:26:09;2.90;;;2.80;;
15667;SDS011;7934;48.710;9.024;2022-08-01T09:28:36;3.10;;;2.70;;
15667;SDS011;7934;48.710;9.024;2022-08-01T09:31:07;3.53;;;3.00;;
15667;SDS011;7934;48.710;9.024;2022-08-01T09:33:51;3.23;;;2.97;;
15667;SDS011;7934;48.710;9.024;2022-08-01T09:36:19;3.33;;;3.23;;
15667;SDS011;7934;48.710;9.024;2022-08-01T09:38:46;3.50;;;3.30;;
15667;SDS011;7934;48.710;9.024;2022-08-01T09:41:15;4.50;;;4.20;;
15667;SDS011;7934;48.710;9.024;2022-08-01T09:43:47;5.07;;;4.70;;
15667;SDS011;7934;48.710;9.024;2022-08-01T09:46:15;4.80;;;4.40;;
15667;SDS011;7934;48.710;9.024;2022-08-01T09:48:54;7.50;;;4.37;;
15667;SDS011;7934;48.710;9.024;2022-08-01T09:51:27;4.37;;;4.17;;
15667;SDS011;7934;48.710;9.024;2022-08-01T09:53:54;3.93;;;3.83;;
15667;SDS011;7934;48.710;9.024;2022-08-01T09:56:23;4.07;;;3.77;;
15667;SDS011;7934;48.710;9.024;2022-08-01T09:58:51;4.10;;;3.90;;
15667;SDS011;7934;48.710;9.024;2022-08-01T10:01:19;3.50;;;3.20;;
15667;SDS011;7934;48.710;9.024;2022-08-01T10:03:47;3.33;;;2.97;;
15667;SDS011;7934;48.710;9.024;2022-08-01T10:06:30;2.83;;;2.73;;
15667;SDS011;7934;48.710;9.024;2022-08-01T10:08:57;2.70;;;2.60;;
15667;SDS011;7934;48.710;9.024;2022-08-01T10:11:26;3.07;;;2.80;;
15667;SDS011;7934;48.710;9.024;2022-08-01T10:13:53;3.20;;;3.00;;
15667;SDS011;7934;48.710;9.024;2022-08-01T10:16:20;2.87;;;2.77;;
15667;SDS011;7934;48.710;9.024;2022-08-01T10:18:48;2.97;;;2.87;;
15667;SDS011;7934;48.710;9.024;2022-08-01T10:21:15;4.43;;;2.80;;
15667;SDS011;7934;48.710;9.024;2022-08-01T10:23:43;5.43;;;2.93;;
15667;SDS011;7934;48.710;9.024;2022-08-01T10:26:12;2.92;;;2.80;;
15667;SDS011;7934;48.710;9.024;2022-08-01T10:28:40;2.72;;;2.63;;
15667;SDS011;7934;48.710;9.024;2022-08-01T10:31:11;2.70;;;2.50;;
15667;SDS011;7934;48.710;9.024;2022-08-01T10:33:38;2.70;;;2.50;;
15667;SDS011;7934;48.710;9.024;2022-08-01T10:36:06;2.30;;;2.20;;
15667;SDS011;7934;48.710;9.024;2022-08-01T10:38:34;2.45;;;2.30;;
15667;SDS011;7934;48.710;9.024;2022-08-01T10:41:02;2.25;;;2.20;;
15667;SDS011;7934;48.710;9.024;2022-08-01T10:43:29;2.42;;;2.28;;
15667;SDS011;7934;48.710;9.024;2022-08-01T10:45:58;2.53;;;2.42;;
15667;SDS011;7934;48.710;9.024;2022-08-01T10:48:27;2.03;;;2.03;;
15667;SDS011;7934;48.710;9.024;2022-08-01T10:50:57;2.28;;;2.17;;
15667;SDS011;7934;48.710;9.024;2022-08-01T10:53:25;2.25;;;2.22;;
15667;SDS011;7934;48.710;9.024;2022-08-01T10:55:57;2.30;;;2.20;;
15667;SDS011;7934;48.710;9.024;2022-08-01T10:58:25;2.28;;;2.03;;
15667;SDS011;7934;48.710;9.024;2022-08-01T11:03:40;2.03;;;1.92;;
15667;SDS011;7934;48.710;9.024;2022-08-01T11:06:08;2.17;;;2.08;;
15667;SDS011;7934;48.710;9.024;2022-08-01T11:08:42;2.08;;;1.98;;
15667;SDS011;7934;48.710;9.024;2022-08-01T11:11:17;2.23;;;2.13;;
15667;SDS011;7934;48.710;9.024;2022-08-01T11:14:01;2.07;;;1.97;;
15667;SDS011;7934;48.710;9.024;2022-08-01T11:16:32;1.93;;;1.83;;
15667;SDS011;7934;48.710;9.024;2022-08-01T11:19:01;2.20;;;2.10;;
15667;SDS011;7934;48.710;9.024;2022-08-01T11:24:13;2.20;;;2.10;;
15667;SDS011;7934;48.710;9.024;2022-08-01T11:26:40;2.30;;;2.10;;
15667;SDS011;7934;48.710;9.024;2022-08-01T11:29:27;2.43;;;2.00;;
15667;SDS011;7934;48.710;9.024;2022-08-01T11:31:54;3.20;;;2.50;;
15667;SDS011;7934;48.710;9.024;2022-08-01T11:34:55;2.27;;;2.10;;
15667;SDS011;7934;48.710;9.024;2022-08-01T11:37:23;2.87;;;2.50;;
15667;SDS011;7934;48.710;9.024;2022-08-01T11:42:32;2.30;;;2.20;;
15667;SDS011;7934;48.710;9.024;2022-08-01T11:45:00;2.23;;;2.13;;
15667;SDS011;7934;48.710;9.024;2022-08-01T11:47:44;2.70;;;2.20;;
15667;SDS011;7934;48.710;9.024;2022-08-01T11:50:31;2.43;;;2.27;;
15667;SDS011;7934;48.710;9.024;2022-08-01T11:52:59;2.40;;;2.30;;
15667;SDS011;7934;48.710;9.024;2022-08-01T11:55:26;2.20;;;2.10;;
15667;SDS011;7934;48.710;9.024;2022-08-01T11:57:58;2.47;;;2.37;;
15667;SDS011;7934;48.710;9.024;2022-08-01T12:00:25;2.23;;;2.13;;
15667;SDS011;7934;48.710;9.024;2022-08-01T12:02:56;2.67;;;2.57;;
15667;SDS011;7934;48.710;9.024;2022-08-01T12:05:23;2.47;;;2.37;;
15667;SDS011;7934;48.710;9.024;2022-08-01T12:07:53;2.47;;;2.37;;
15667;SDS011;7934;48.710;9.024;2022-08-01T12:10:22;2.40;;;2.40;;
15667;SDS011;7934;48.710;9.024;2022-08-01T12:12:49;2.40;;;2.30;;
15667;SDS011;7934;48.710;9.024;2022-08-01T12:15:17;2.53;;;2.43;;
15667;SDS011;7934;48.710;9.024;2022-08-01T12:17:45;2.20;;;2.20;;
15667;SDS011;7934;48.710;9.024;2022-08-01T12:20:14;2.00;;;1.90;;
15667;SDS011;7934;48.710;9.024;2022-08-01T12:22:41;1.80;;;1.70;;
15667;SDS011;7934;48.710;9.024;2022-08-01T12:25:11;2.53;;;2.43;;
15667;SDS011;7934;48.710;9.024;2022-08-01T12:27:39;1.83;;;1.80;;
15667;SDS011;7934;48.710;9.024;2022-08-01T12:30:07;1.87;;;1.77;;
15667;SDS011;7934;48.710;9.024;2022-08-01T12:32:35;2.03;;;1.97;;
15667;SDS011;7934;48.710;9.024;2022-08-01T12:35:03;2.10;;;2.00;;
15667;SDS011;7934;48.710;9.024;2022-08-01T12:37:31;1.90;;;1.80;;
15667;SDS011;7934;48.710;9.024;2022-08-01T12:39:58;2.37;;;2.27;;
15667;SDS011;7934;48.710;9.024;2022-08-01T12:42:27;1.80;;;1.70;;
15667;SDS011;7934;48.710;9.024;2022-08-01T12:44:54;3.80;;;1.80;;
15667;SDS011;7934;48.710;9.024;2022-08-01T12:47:22;2.47;;;2.37;;
15667;SDS011;7934;48.710;9.024;2022-08-01T12:49:50;2.03;;;1.93;;
15667;SDS011;7934;48.710;9.024;2022-08-01T12:52:17;3.27;;;1.60;;
15667;SDS011;7934;48.710;9.024;2022-08-01T12:55:00;2.08;;;2.08;;
15667;SDS011;7934;48.710;9.024;2022-08-01T12:57:29;5.57;;;1.77;;
15667;SDS011;7934;48.710;9.024;2022-08-01T13:00:06;4.05;;;2.00;;
15667;SDS011;7934;48.710;9.024;2022-08-01T13:02:33;1.77;;;1.67;;
15667;SDS011;7934;48.710;9.024;2022-08-01T13:05:01;2.00;;;1.88;;
15667;SDS011;7934;48.710;9.024;2022-08-01T13:07:35;1.90;;;1.80;;
15667;SDS011;7934;48.710;9.024;2022-08-01T13:10:02;2.20;;;2.00;;
15667;SDS011;7934;48.710;9.024;2022-08-01T13:12:31;5.50;;;2.20;;
15667;SDS011;7934;48.710;9.024;2022-08-01T13:14:58;2.10;;;2.00;;
15667;SDS011;7934;48.710;9.024;2022-08-01T13:17:31;2.07;;;1.97;;
15667;SDS011;7934;48.710;9.024;2022-08-01T13:20:00;1.93;;;1.83;;
15667;SDS011;7934;48.710;9.024;2022-08-01T13:22:31;2.10;;;1.80;;
15667;SDS011;7934;48.710;9.024;2022-08-01T13:25:08;2.03;;;1.92;;
15667;SDS011;7934;48.710;9.024;2022-08-01T13:27:37;1.70;;;1.60;;
15667;SDS011;7934;48.710;9.024;2022-08-01T13:30:11;2.00;;;1.90;;
15667;SDS011;7934;48.710;9.024;2022-08-01T13:32:38;2.13;;;1.95;;
15667;SDS011;7934;48.710;9.024;2022-08-01T13:35:08;2.22;;;1.55;;
15667;SDS011;7934;48.710;9.024;2022-08-01T13:37:35;1.80;;;1.70;;
15667;SDS011;7934;48.710;9.024;2022-08-01T13:40:03;2.80;;;1.90;;
15667;SDS011;7934;48.710;9.024;2022-08-01T13:42:30;1.90;;;1.80;;
15667;SDS011;7934;48.710;9.024;2022-08-01T13:44:58;3.22;;;2.00;;
15667;SDS011;7934;48.710;9.024;2022-08-01T13:47:25;2.35;;;2.15;;
15667;SDS011;7934;48.710;9.024;2022-08-01T13:49:53;2.78;;;2.10;;
15667;SDS011;7934;48.710;9.024;2022-08-01T13:52:20;3.65;;;2.03;;
15667;SDS011;7934;48.710;9.024;2022-08-01T13:54:47;3.03;;;2.67;;
15667;SDS011;7934;48.710;9.024;2022-08-01T13:57:14;2.23;;;2.13;;
15667;SDS011;7934;48.710;9.024;2022-08-01T13:59:41;2.30;;;2.20;;
15667;SDS011;7934;48.710;9.024;2022-08-01T14:02:10;2.53;;;2.43;;
15667;SDS011;7934;48.710;9.024;2022-08-01T14:04:37;2.03;;;1.93;;
15667;SDS011;7934;48.710;9.024;2022-08-01T14:07:04;2.87;;;2.67;;
15667;SDS011;7934;48.710;9.024;2022-08-01T14:09:32;3.23;;;2.50;;
15667;SDS011;7934;48.710;9.024;2022-08-01T14:11:59;2.27;;;2.17;;
15667;SDS011;7934;48.710;9.024;2022-08-01T14:14:26;2.50;;;2.40;;
15667;SDS011;7934;48.710;9.024;2022-08-01T14:16:53;2.30;;;2.20;;
15667;SDS011;7934;48.710;9.024;2022-08-01T14:19:22;2.83;;;2.40;;
15667;SDS011;7934;48.710;9.024;2022-08-01T14:21:49;2.30;;;2.10;;
15667;SDS011;7934;48.710;9.024;2022-08-01T14:24:17;2.53;;;2.33;;
15667;SDS011;7934;48.710;9.024;2022-08-01T14:26:44;2.40;;;2.20;;
15667;SDS011;7934;48.710;9.024;2022-08-01T14:29:11;2.30;;;2.10;;
15667;SDS011;7934;48.710;9.024;2022-08-01T14:31:38;2.27;;;2.17;;
15667;SDS011;7934;48.710;9.024;2022-08-01T14:34:06;2.53;;;2.43;;
15667;SDS011;7934;48.710;9.024;2022-08-01T14:36:34;2.23;;;2.10;;
15667;SDS011;7934;48.710;9.024;2022-08-01T14:39:02;2.30;;;1.70;;
15667;SDS011;7934;48.710;9.024;2022-08-01T14:41:29;2.33;;;2.17;;
15667;SDS011;7934;48.710;9.024;2022-08-01T14:43:56;4.50;;;1.97;;
15667;SDS011;7934;48.710;9.024;2022-08-01T14:46:24;2.10;;;2.00;;
15667;SDS011;7934;48.710;9.024;2022-08-01T14:48:51;3.00;;;2.07;;
15667;SDS011;7934;48.710;9.024;2022-08-01T14:51:19;2.10;;;2.00;;
15667;SDS011;7934;48.710;9.024;2022-08-01T14:53:47;2.23;;;2.13;;
15667;SDS011;7934;48.710;9.024;2022-08-01T14:56:14;2.07;;;1.97;;
15667;SDS011;7934;48.710;9.024;2022-08-01T14:58:42;2.40;;;2.20;;
15667;SDS011;7934;48.710;9.024;2022-08-01T15:01:09;2.40;;;2.20;;
15667;SDS011;7934;48.710;9.024;2022-08-01T15:03:36;2.13;;;2.03;;
15667;SDS011;7934;48.710;9.024;2022-08-01T15:06:03;5.33;;;2.23;;
15667;SDS011;7934;48.710;9.024;2022-08-01T15:08:31;2.20;;;2.10;;
15667;SDS011;7934;48.710;9.024;2022-08-01T15:11:00;2.10;;;2.00;;
15667;SDS011;7934;48.710;9.024;2022-08-01T15:13:27;2.20;;;2.03;;
15667;SDS011;7934;48.710;9.024;2022-08-01T15:15:55;2.00;;;1.90;;
15667;SDS011;7934;48.710;9.024;2022-08-01T15:18:23;2.90;;;2.30;;